createdAt,value
2023-03-06T00:00:35.067Z,65.65
2023-03-06T00:03:02.185Z,63.94
2023-03-06T00:05:29.915Z,62.65
2023-03-06T00:07:57.309Z,61.60
2023-03-06T00:10:27.159Z,60.60
2023-03-06T00:12:59.718Z,57.77
2023-03-06T00:15:27.690Z,55.65
2023-03-06T00:17:55.320Z,56.74
2023-03-06T00:20:23.323Z,58.09
2023-03-06T00:22:51.064Z,59.45
2023-03-06T00:25:21.706Z,60.35
2023-03-06T00:27:49.948Z,61.53
2023-03-06T00:30:21.746Z,65.07
2023-03-06T00:32:49.552Z,71.57
2023-03-06T00:35:17.085Z,71.21
2023-03-06T00:37:44.635Z,68.49
2023-03-06T00:40:18.295Z,66.14
2023-03-06T00:42:46.263Z,64.30
2023-03-06T00:45:14.185Z,62.62
2023-03-06T00:47:42.207Z,61.15
2023-03-06T00:50:11.109Z,59.79
2023-03-06T00:52:38.337Z,56.58
2023-03-06T00:55:06.546Z,54.05
2023-03-06T00:57:33.589Z,54.32
2023-03-06T01:00:00.444Z,55.26
2023-03-06T01:02:28.030Z,56.36
2023-03-06T01:04:56.060Z,57.57
2023-03-06T01:07:23.465Z,58.41
2023-03-06T01:09:50.593Z,59.69
2023-03-06T01:12:18.023Z,60.87
2023-03-06T01:14:45.676Z,63.54
2023-03-06T01:17:12.818Z,72.34
2023-03-06T01:19:40.079Z,73.48
2023-03-06T01:22:07.009Z,70.85
2023-03-06T01:24:34.051Z,68.01
2023-03-06T01:27:01.101Z,65.69
2023-03-06T01:29:28.416Z,64.00
2023-03-06T01:31:55.543Z,62.69
2023-03-06T01:34:22.652Z,61.55
2023-03-06T01:36:49.859Z,60.04
2023-03-06T01:39:17.307Z,56.85
2023-03-06T01:41:44.393Z,54.80
2023-03-06T01:44:13.997Z,55.85
2023-03-06T01:46:45.466Z,57.19
2023-03-06T01:49:32.158Z,57.54
2023-03-06T01:52:04.023Z,57.71
2023-03-06T01:54:38.913Z,59.06
2023-03-06T01:57:10.043Z,61.08
2023-03-06T01:59:37.448Z,61.25
2023-03-06T02:02:07.363Z,59.95
2023-03-06T02:04:35.700Z,61.72
2023-03-06T02:07:06.689Z,66.08
2023-03-06T02:09:35.344Z,74.41
2023-03-06T02:12:03.867Z,74.58
2023-03-06T02:14:31.229Z,71.93
2023-03-06T02:16:58.378Z,69.46
2023-03-06T02:19:34.023Z,67.64
2023-03-06T02:22:02.112Z,66.34
2023-03-06T02:24:52.329Z,64.98
2023-03-06T02:27:20.270Z,63.83
2023-03-06T02:29:47.310Z,62.70
2023-03-06T02:32:14.309Z,61.88
2023-03-06T02:34:47.897Z,60.85
2023-03-06T02:37:14.665Z,60.30
2023-03-06T02:40:00.905Z,60.01
2023-03-06T02:42:31.788Z,57.18
2023-03-06T02:45:02.417Z,54.52
2023-03-06T02:47:29.477Z,55.02
2023-03-06T02:49:56.342Z,56.33
2023-03-06T02:52:23.300Z,57.63
2023-03-06T02:54:50.662Z,58.56
2023-03-06T02:57:17.626Z,59.69
2023-03-06T02:59:44.445Z,60.79
2023-03-06T03:02:11.483Z,63.49
2023-03-06T03:04:38.494Z,70.26
2023-03-06T03:07:05.676Z,71.65
2023-03-06T03:09:37.700Z,69.65
2023-03-06T03:12:07.148Z,67.47
2023-03-06T03:14:34.289Z,65.55
2023-03-06T03:17:02.464Z,63.91
2023-03-06T03:19:29.607Z,62.38
2023-03-06T03:21:57.221Z,60.90
2023-03-06T03:24:25.673Z,57.82
2023-03-06T03:26:53.203Z,54.14
2023-03-06T03:29:20.562Z,54.01
2023-03-06T03:31:47.611Z,54.84
2023-03-06T03:34:15.077Z,55.52
2023-03-06T03:36:42.421Z,56.27
2023-03-06T03:39:10.696Z,57.06
2023-03-06T03:41:37.651Z,57.87
2023-03-06T03:44:04.695Z,58.55
2023-03-06T03:46:32.151Z,59.32
2023-03-06T03:48:59.489Z,60.16
2023-03-06T03:51:26.735Z,61.35
2023-03-06T03:53:53.776Z,65.02
2023-03-06T03:56:20.871Z,72.53
2023-03-06T03:58:48.273Z,74.05
2023-03-06T04:01:15.261Z,72.98
2023-03-06T04:03:42.362Z,71.07
2023-03-06T04:06:09.610Z,69.41
2023-03-06T04:08:37.044Z,67.23
2023-03-06T04:11:04.429Z,65.28
2023-03-06T04:13:31.738Z,63.57
2023-03-06T04:16:00.051Z,61.94
2023-03-06T04:18:27.399Z,60.57
2023-03-06T04:20:54.699Z,57.77
2023-03-06T04:23:23.182Z,54.96
2023-03-06T04:25:51.342Z,55.26
2023-03-06T04:28:18.415Z,56.39
2023-03-06T04:30:45.338Z,56.82
2023-03-06T04:33:12.743Z,58.99
2023-03-06T04:35:39.840Z,61.55
2023-03-06T04:38:07.141Z,64.15
2023-03-06T04:40:36.653Z,69.29
2023-03-06T04:43:04.709Z,70.00
2023-03-06T04:45:33.337Z,67.31
2023-03-06T04:48:00.643Z,64.83
2023-03-06T04:50:32.804Z,64.42
2023-03-06T04:53:03.914Z,63.52
2023-03-06T04:55:31.450Z,62.44
2023-03-06T04:57:59.376Z,62.18
2023-03-06T05:00:32.618Z,60.56
2023-03-06T05:03:01.269Z,57.90
2023-03-06T05:05:28.712Z,54.61
2023-03-06T05:07:56.297Z,55.46
2023-03-06T05:10:23.833Z,56.11
2023-03-06T05:12:51.064Z,59.29
2023-03-06T05:15:18.523Z,61.33
2023-03-06T05:17:46.786Z,65.70
2023-03-06T05:20:15.908Z,69.80
2023-03-06T05:22:43.927Z,67.69
2023-03-06T05:25:11.200Z,65.68
2023-03-06T05:27:39.274Z,63.68
2023-03-06T05:30:07.936Z,63.01
2023-03-06T05:32:35.895Z,61.83
2023-03-06T05:35:05.188Z,60.99
2023-03-06T05:37:33.106Z,60.38
2023-03-06T05:40:00.875Z,57.61
2023-03-06T05:42:31.115Z,53.98
2023-03-06T05:44:58.154Z,54.96
2023-03-06T05:47:25.164Z,56.20
2023-03-06T05:49:52.206Z,58.00
2023-03-06T05:52:19.258Z,60.42
2023-03-06T05:54:51.607Z,65.23
2023-03-06T05:57:20.917Z,69.69
2023-03-06T05:59:49.502Z,68.26
2023-03-06T06:02:17.884Z,65.25
2023-03-06T06:04:46.016Z,63.92
2023-03-06T06:07:15.529Z,62.90
2023-03-06T06:09:45.778Z,61.37
2023-03-06T06:12:13.878Z,60.31
2023-03-06T06:14:40.986Z,57.86
2023-03-06T06:17:07.940Z,55.36
2023-03-06T06:19:35.322Z,56.18
2023-03-06T06:22:03.985Z,57.13
2023-03-06T06:24:32.238Z,59.13
2023-03-06T06:27:03.298Z,60.56
2023-03-06T06:29:31.257Z,63.99
2023-03-06T06:31:58.933Z,69.08
2023-03-06T06:34:27.186Z,68.62
2023-03-06T06:36:54.844Z,66.31
2023-03-06T06:39:23.923Z,64.26
2023-03-06T06:42:09.609Z,62.14
2023-03-06T06:44:40.482Z,60.97
2023-03-06T06:47:25.089Z,57.48
2023-03-06T06:49:54.884Z,54.78
2023-03-06T06:52:23.178Z,55.58
2023-03-06T06:54:50.295Z,56.45
2023-03-06T06:57:17.903Z,61.51
2023-03-06T06:59:44.705Z,61.06
2023-03-06T07:02:14.095Z,65.67
2023-03-06T07:04:52.734Z,69.94
2023-03-06T07:07:25.404Z,67.80
2023-03-06T07:09:53.208Z,64.70
2023-03-06T07:12:20.203Z,62.44
2023-03-06T07:14:47.275Z,60.76
2023-03-06T07:17:14.422Z,57.44
2023-03-06T07:19:41.324Z,54.17
2023-03-06T07:22:08.215Z,54.38
2023-03-06T07:24:36.258Z,55.62
2023-03-06T07:27:03.125Z,56.83
2023-03-06T07:29:30.208Z,59.29
2023-03-06T07:31:57.210Z,62.71
2023-03-06T07:34:24.206Z,67.22
2023-03-06T07:36:51.535Z,66.95
2023-03-06T07:39:18.582Z,65.31
2023-03-06T07:41:45.594Z,62.97
2023-03-06T07:44:12.750Z,61.31
2023-03-06T07:46:39.705Z,57.76
2023-03-06T07:49:06.702Z,54.75
2023-03-06T07:51:33.874Z,55.04
2023-03-06T07:54:00.931Z,56.46
2023-03-06T07:56:28.050Z,58.70
2023-03-06T07:58:56.166Z,59.64
2023-03-06T08:01:24.711Z,60.29
2023-03-06T08:03:52.579Z,65.28
2023-03-06T08:06:25.765Z,68.53
2023-03-06T08:08:55.294Z,67.21
2023-03-06T08:11:24.949Z,64.69
2023-03-06T08:13:53.261Z,61.67
2023-03-06T08:16:22.427Z,59.67
2023-03-06T08:18:50.323Z,55.81
2023-03-06T08:21:21.047Z,52.74
2023-03-06T08:23:48.932Z,53.69
2023-03-06T08:26:34.770Z,54.37
2023-03-06T08:29:03.405Z,55.63
2023-03-06T08:31:37.096Z,55.94
2023-03-06T08:34:26.211Z,57.70
2023-03-06T08:36:53.807Z,58.97
2023-03-06T08:39:21.662Z,64.77
2023-03-06T08:41:48.795Z,66.85
2023-03-06T08:44:15.758Z,63.19
2023-03-06T08:46:42.764Z,58.52
2023-03-06T08:49:12.816Z,55.45
2023-03-06T08:51:40.284Z,54.69
2023-03-06T08:54:07.812Z,55.00
2023-03-06T08:56:35.242Z,55.31
2023-03-06T08:59:04.097Z,57.24
2023-03-06T09:01:34.500Z,57.63
2023-03-06T09:04:05.536Z,58.86
2023-03-06T09:06:34.785Z,58.97
2023-03-06T09:09:02.384Z,59.17
2023-03-06T09:11:29.837Z,60.13
2023-03-06T09:13:58.037Z,59.46
2023-03-06T09:16:25.772Z,60.51
2023-03-06T09:18:54.460Z,59.93
2023-03-06T09:21:23.167Z,60.49
2023-03-06T09:23:50.869Z,62.24
2023-03-06T09:26:18.965Z,65.16
2023-03-06T09:28:46.062Z,64.09
2023-03-06T09:31:16.670Z,60.49
2023-03-06T09:33:44.164Z,54.41
2023-03-06T09:36:19.667Z,50.02
2023-03-06T09:38:48.628Z,50.84
2023-03-06T09:41:37.809Z,53.47
2023-03-06T09:44:08.949Z,55.11
2023-03-06T09:46:41.623Z,56.16
2023-03-06T09:49:21.006Z,53.09
2023-03-06T09:52:22.118Z,55.06
2023-03-06T09:54:57.570Z,56.19
2023-03-06T09:57:32.301Z,55.58
2023-03-06T10:00:13.249Z,57.01
2023-03-06T10:03:09.427Z,56.49
2023-03-06T10:05:42.637Z,55.73
2023-03-06T10:08:24.401Z,54.07
2023-03-06T10:10:59.690Z,53.77
2023-03-06T10:13:43.518Z,53.66
2023-03-06T10:16:23.761Z,53.26
2023-03-06T10:18:51.532Z,54.58
2023-03-06T10:21:56.209Z,52.54
2023-03-06T10:24:41.863Z,53.89
2023-03-06T10:27:34.488Z,52.91
2023-03-06T10:30:09.834Z,55.08
2023-03-06T10:33:16.541Z,55.17
2023-03-06T10:35:48.832Z,55.30
2023-03-06T10:38:28.482Z,54.17
2023-03-06T10:41:13.715Z,52.99
2023-03-06T10:43:42.003Z,53.53
2023-03-06T10:46:14.854Z,52.49
2023-03-06T10:48:43.200Z,52.94
2023-03-06T10:51:19.826Z,53.94
2023-03-06T10:53:57.687Z,51.74
2023-03-06T10:56:27.323Z,52.88
2023-03-06T10:59:16.622Z,52.96
2023-03-06T11:01:46.859Z,54.06
2023-03-06T11:04:35.571Z,53.64
2023-03-06T11:07:08.218Z,53.46
2023-03-06T11:09:36.142Z,53.23
2023-03-06T11:12:25.486Z,53.36
2023-03-06T11:15:11.169Z,52.62
2023-03-06T11:17:48.220Z,50.65
2023-03-06T11:20:15.118Z,50.72
2023-03-06T11:22:49.013Z,50.32
2023-03-06T11:25:18.863Z,49.34
2023-03-06T11:27:55.965Z,48.77
2023-03-06T11:30:30.691Z,48.29
2023-03-06T11:33:30.690Z,49.50
2023-03-06T11:36:23.346Z,49.81
2023-03-06T11:38:52.948Z,49.50
2023-03-06T11:41:58.216Z,48.40
2023-03-06T11:44:52.028Z,48.43
2023-03-06T11:47:42.535Z,47.92
2023-03-06T11:50:23.108Z,48.12
2023-03-06T11:53:11.803Z,48.51
2023-03-06T11:55:57.421Z,47.84
2023-03-06T11:58:51.640Z,47.41
2023-03-06T12:01:41.937Z,47.91
2023-03-06T12:04:46.685Z,48.35
2023-03-06T12:07:29.720Z,48.07
2023-03-06T12:10:49.005Z,47.86
2023-03-06T12:13:33.584Z,48.39
2023-03-06T12:16:19.204Z,48.45
2023-03-06T12:19:01.325Z,48.76
2023-03-06T12:21:41.274Z,48.50
2023-03-06T12:24:19.912Z,49.14
2023-03-06T12:27:01.528Z,49.12
2023-03-06T12:29:37.661Z,49.42
2023-03-06T12:32:17.277Z,49.57
2023-03-06T12:34:59.241Z,49.91
2023-03-06T12:37:47.336Z,49.78
2023-03-06T12:40:35.939Z,50.31
2023-03-06T12:43:05.799Z,50.46
2023-03-06T12:45:44.244Z,50.57
2023-03-06T12:48:22.891Z,50.54
2023-03-06T12:50:51.118Z,50.50
2023-03-06T12:53:28.008Z,50.86
2023-03-06T12:55:57.542Z,50.76
2023-03-06T12:58:30.589Z,50.56
2023-03-06T13:01:28.851Z,50.69
2023-03-06T13:04:28.285Z,50.21
2023-03-06T13:07:04.710Z,49.86
2023-03-06T13:09:54.796Z,49.95
2023-03-06T13:12:36.482Z,50.47
2023-03-06T13:15:40.816Z,50.40
2023-03-06T13:18:23.344Z,50.39
2023-03-06T13:20:51.813Z,49.60
2023-03-06T13:23:36.578Z,49.62
2023-03-06T13:26:08.672Z,50.00
2023-03-06T13:28:46.753Z,49.46
2023-03-06T13:31:27.692Z,48.87
2023-03-06T13:34:00.155Z,49.10
2023-03-06T13:36:30.592Z,49.19
2023-03-06T13:39:12.410Z,49.23
2023-03-06T13:41:59.493Z,48.97
2023-03-06T13:44:26.291Z,48.69
2023-03-06T13:47:39.182Z,49.59
2023-03-06T13:50:29.469Z,49.93
2023-03-06T13:53:12.868Z,50.84
2023-03-06T13:55:58.006Z,52.67
2023-03-06T13:58:40.030Z,53.44
2023-03-06T14:01:39.551Z,54.92
2023-03-06T14:04:32.896Z,55.11
2023-03-06T14:07:10.249Z,55.73
2023-03-06T14:09:46.492Z,56.27
2023-03-06T14:12:49.631Z,56.05
2023-03-06T14:15:19.650Z,56.02
2023-03-06T14:18:07.626Z,56.54
2023-03-06T14:20:50.705Z,56.36
2023-03-06T14:23:29.311Z,56.58
2023-03-06T14:26:01.603Z,56.58
2023-03-06T14:28:31.217Z,56.69
2023-03-06T14:31:00.266Z,56.61
2023-03-06T14:33:32.769Z,57.09
2023-03-06T14:36:03.289Z,57.70
2023-03-06T14:38:35.610Z,59.16
2023-03-06T14:41:05.390Z,59.11
2023-03-06T14:43:33.213Z,59.50
2023-03-06T14:46:02.537Z,61.01
2023-03-06T14:48:44.678Z,64.00
2023-03-06T14:51:17.340Z,72.15
2023-03-06T14:53:48.288Z,72.87
2023-03-06T14:56:19.552Z,70.16
2023-03-06T14:58:50.898Z,66.54
2023-03-06T15:01:26.685Z,64.45
2023-03-06T15:03:58.959Z,59.85
2023-03-06T15:06:38.236Z,56.29
2023-03-06T15:09:31.021Z,55.74
2023-03-06T15:12:02.518Z,56.50
2023-03-06T15:14:37.312Z,57.72
2023-03-06T15:17:19.830Z,57.24
2023-03-06T15:19:51.937Z,58.03
2023-03-06T15:22:30.034Z,58.29
2023-03-06T15:25:19.883Z,59.37
2023-03-06T15:27:51.638Z,59.85
2023-03-06T15:30:25.067Z,60.65
2023-03-06T15:32:53.279Z,61.32
2023-03-06T15:35:26.785Z,61.51
2023-03-06T15:37:54.231Z,64.51
2023-03-06T15:40:23.781Z,70.34
2023-03-06T15:42:50.923Z,71.07
2023-03-06T15:45:20.914Z,67.92
2023-03-06T15:47:49.458Z,64.80
2023-03-06T15:50:28.256Z,61.60
2023-03-06T15:52:55.961Z,57.35
2023-03-06T15:55:28.420Z,53.71
2023-03-06T15:58:00.944Z,53.20
2023-03-06T16:00:31.306Z,53.97
2023-03-06T16:02:59.056Z,54.70
2023-03-06T16:05:27.766Z,55.34
2023-03-06T16:07:55.292Z,56.17
2023-03-06T16:10:25.068Z,57.05
2023-03-06T16:12:56.749Z,57.64
2023-03-06T16:15:31.123Z,58.46
2023-03-06T16:18:00.152Z,58.69
2023-03-06T16:20:29.210Z,59.10
2023-03-06T16:22:57.223Z,59.51
2023-03-06T16:25:28.019Z,60.57
2023-03-06T16:27:58.847Z,60.72
2023-03-06T16:30:28.802Z,61.19
2023-03-06T16:32:56.407Z,64.26
2023-03-06T16:35:24.011Z,69.35
2023-03-06T16:37:51.302Z,69.53
2023-03-06T16:40:24.504Z,66.91
2023-03-06T16:42:54.071Z,65.03
2023-03-06T16:45:24.725Z,62.30
2023-03-06T16:47:51.888Z,60.55
2023-03-06T16:50:28.765Z,56.20
2023-03-06T16:52:57.284Z,52.21
2023-03-06T16:55:26.382Z,52.04
2023-03-06T16:57:53.989Z,52.57
2023-03-06T17:00:22.792Z,54.05
2023-03-06T17:02:51.165Z,55.65
2023-03-06T17:05:19.632Z,56.25
2023-03-06T17:07:46.783Z,57.43
2023-03-06T17:10:16.671Z,58.24
2023-03-06T17:12:44.009Z,58.71
2023-03-06T17:15:11.849Z,59.63
2023-03-06T17:17:39.221Z,60.41
2023-03-06T17:20:08.489Z,61.81
2023-03-06T17:22:36.624Z,65.25
2023-03-06T17:25:07.000Z,68.37
2023-03-06T17:27:35.715Z,68.54
2023-03-06T17:30:06.103Z,66.07
2023-03-06T17:32:33.489Z,63.50
2023-03-06T17:35:00.768Z,60.83
2023-03-06T17:37:27.825Z,55.94
2023-03-06T17:39:55.395Z,52.64
2023-03-06T17:42:22.644Z,53.01
2023-03-06T17:44:50.116Z,53.61
2023-03-06T17:47:17.157Z,55.37
2023-03-06T17:49:44.167Z,55.74
2023-03-06T17:52:11.850Z,57.68
2023-03-06T17:54:39.407Z,57.76
2023-03-06T17:57:06.633Z,59.94
2023-03-06T17:59:34.808Z,61.37
2023-03-06T18:02:02.512Z,60.68
2023-03-06T18:04:30.229Z,61.08
2023-03-06T18:06:58.683Z,61.15
2023-03-06T18:09:26.164Z,61.26
2023-03-06T18:11:53.441Z,61.83
2023-03-06T18:14:20.444Z,65.29
2023-03-06T18:16:47.678Z,70.26
2023-03-06T18:19:16.179Z,69.08
2023-03-06T18:21:43.699Z,65.65
2023-03-06T18:24:11.792Z,62.47
2023-03-06T18:26:44.745Z,60.18
2023-03-06T18:29:12.272Z,55.74
2023-03-06T18:31:41.797Z,51.85
2023-03-06T18:34:14.257Z,51.73
2023-03-06T18:36:43.571Z,52.16
2023-03-06T18:39:13.897Z,53.01
2023-03-06T18:41:42.842Z,53.88
2023-03-06T18:44:18.233Z,54.85
2023-03-06T18:46:45.786Z,55.76
2023-03-06T18:49:15.006Z,56.66
2023-03-06T18:51:43.694Z,57.08
2023-03-06T18:54:13.103Z,57.76
2023-03-06T18:56:44.581Z,58.22
2023-03-06T18:59:18.794Z,58.91
2023-03-06T19:01:47.695Z,59.42
2023-03-06T19:04:17.274Z,59.83
2023-03-06T19:06:44.733Z,60.26
2023-03-06T19:09:11.714Z,60.65
2023-03-06T19:11:39.555Z,60.87
2023-03-06T19:14:07.137Z,61.18
2023-03-06T19:16:35.780Z,61.56
2023-03-06T19:19:03.370Z,63.89
2023-03-06T19:21:30.504Z,69.69
2023-03-06T19:23:58.863Z,68.85
2023-03-06T19:26:28.495Z,64.79
2023-03-06T19:28:55.932Z,62.99
2023-03-06T19:31:28.036Z,61.58
2023-03-06T19:33:57.468Z,57.85
2023-03-06T19:36:29.259Z,53.41
2023-03-06T19:38:58.890Z,53.15
2023-03-06T19:41:26.748Z,54.32
2023-03-06T19:43:56.999Z,55.48
2023-03-06T19:46:25.143Z,56.41
2023-03-06T19:49:00.369Z,57.10
2023-03-06T19:51:28.605Z,58.61
2023-03-06T19:53:57.404Z,59.62
2023-03-06T19:56:27.007Z,60.76
2023-03-06T19:58:54.534Z,64.77
2023-03-06T20:01:23.573Z,71.01
2023-03-06T20:03:53.616Z,71.00
2023-03-06T20:06:20.707Z,69.30
2023-03-06T20:08:48.255Z,66.82
2023-03-06T20:11:30.025Z,64.63
2023-03-06T20:13:59.142Z,62.87
2023-03-06T20:16:30.206Z,60.83
2023-03-06T20:18:59.136Z,57.40
2023-03-06T20:21:28.505Z,54.50
2023-03-06T20:23:58.342Z,54.85
2023-03-06T20:26:27.533Z,56.26
2023-03-06T20:28:55.377Z,57.61
2023-03-06T20:31:26.043Z,58.54
2023-03-06T20:33:55.378Z,59.50
2023-03-06T20:36:27.600Z,60.44
2023-03-06T20:38:56.246Z,62.02
2023-03-06T20:41:26.809Z,66.26
2023-03-06T20:43:54.978Z,72.47
2023-03-06T20:46:23.707Z,71.81
2023-03-06T20:48:52.895Z,68.89
2023-03-06T20:51:28.887Z,66.44
2023-03-06T20:53:56.601Z,64.24
2023-03-06T20:56:26.507Z,62.38
2023-03-06T20:58:54.015Z,60.83
2023-03-06T21:01:29.823Z,57.01
2023-03-06T21:03:58.426Z,54.23
2023-03-06T21:06:26.892Z,55.11
2023-03-06T21:08:54.739Z,56.33
2023-03-06T21:11:21.791Z,57.56
2023-03-06T21:13:49.371Z,58.48
2023-03-06T21:16:20.140Z,59.16
2023-03-06T21:18:48.040Z,59.64
2023-03-06T21:21:18.730Z,60.05
2023-03-06T21:23:47.450Z,60.50
2023-03-06T21:26:18.335Z,60.93
2023-03-06T21:28:46.041Z,61.33
2023-03-06T21:31:16.098Z,64.29
2023-03-06T21:33:44.208Z,71.29
2023-03-06T21:36:11.938Z,72.57
2023-03-06T21:38:39.058Z,69.61
2023-03-06T21:41:19.634Z,66.48
2023-03-06T21:43:47.069Z,63.98
2023-03-06T21:46:14.892Z,61.84
2023-03-06T21:48:41.772Z,60.16
2023-03-06T21:51:11.938Z,57.05
2023-03-06T21:53:42.000Z,53.32
2023-03-06T21:56:09.664Z,53.37
2023-03-06T21:58:36.889Z,54.43
2023-03-06T22:01:09.957Z,55.52
2023-03-06T22:03:36.939Z,56.56
2023-03-06T22:06:12.892Z,57.98
2023-03-06T22:08:41.719Z,58.87
2023-03-06T22:11:18.158Z,59.71
2023-03-06T22:13:46.182Z,60.84
2023-03-06T22:16:14.581Z,61.61
2023-03-06T22:18:46.143Z,65.37
2023-03-06T22:21:15.944Z,72.15
2023-03-06T22:23:43.241Z,71.64
2023-03-06T22:26:13.005Z,68.52
2023-03-06T22:28:41.463Z,66.00
2023-03-06T22:31:13.622Z,63.42
2023-03-06T22:33:41.410Z,61.68
2023-03-06T22:36:14.815Z,57.59
2023-03-06T22:38:43.841Z,54.01
2023-03-06T22:41:12.500Z,53.93
2023-03-06T22:43:40.052Z,54.42
2023-03-06T22:46:12.670Z,55.12
2023-03-06T22:48:40.297Z,55.97
2023-03-06T22:51:10.077Z,56.96
2023-03-06T22:53:38.854Z,58.39
2023-03-06T22:56:08.406Z,59.79
2023-03-06T22:58:37.601Z,60.40
2023-03-06T23:01:10.243Z,61.52
2023-03-06T23:03:39.681Z,65.33
2023-03-06T23:06:12.883Z,71.79
2023-03-06T23:08:40.592Z,71.42
2023-03-06T23:11:10.353Z,68.24
2023-03-06T23:13:38.490Z,65.24
2023-03-06T23:16:07.332Z,62.69
2023-03-06T23:18:36.104Z,60.68
2023-03-06T23:21:12.347Z,56.93
2023-03-06T23:23:40.647Z,53.54
2023-03-06T23:26:09.222Z,53.45
2023-03-06T23:28:36.125Z,53.88
2023-03-06T23:31:11.098Z,54.86
2023-03-06T23:33:39.294Z,55.76
2023-03-06T23:36:08.652Z,56.75
2023-03-06T23:38:36.191Z,57.90
2023-03-06T23:41:14.668Z,58.98
2023-03-06T23:43:42.182Z,59.68
2023-03-06T23:46:09.800Z,60.37
2023-03-06T23:48:39.124Z,61.22
2023-03-06T23:51:08.519Z,64.96
2023-03-06T23:53:36.006Z,71.51
2023-03-06T23:56:06.862Z,70.99
2023-03-06T23:58:34.457Z,67.93
